createdAt,value
2017-08-30T00:01:59.242Z,14.53
2017-08-30T00:04:26.753Z,21.80
2017-08-30T00:06:54.297Z,16.53
2017-08-30T00:09:21.815Z,15.50
2017-08-30T00:11:49.316Z,15.97
2017-08-30T00:14:16.864Z,14.30
2017-08-30T00:16:44.383Z,13.97
2017-08-30T00:19:11.879Z,10.13
2017-08-30T00:21:39.727Z,16.17
2017-08-30T00:24:07.246Z,12.00
2017-08-30T00:26:34.749Z,14.80
2017-08-30T00:29:02.321Z,14.83
2017-08-30T00:31:29.838Z,16.73
2017-08-30T00:33:57.335Z,20.37
2017-08-30T00:36:24.875Z,19.47
2017-08-30T00:38:52.385Z,15.80
2017-08-30T00:41:19.902Z,25.17
2017-08-30T00:43:47.446Z,17.13
2017-08-30T00:46:14.959Z,19.23
2017-08-30T00:48:42.480Z,11.17
2017-08-30T00:51:10.007Z,9.97
2017-08-30T00:53:37.526Z,11.13
2017-08-30T00:56:05.037Z,13.23
2017-08-30T00:58:32.583Z,10.90
2017-08-30T01:01:00.077Z,9.47
2017-08-30T01:03:27.602Z,10.90
2017-08-30T01:05:55.154Z,10.80
2017-08-30T01:08:22.656Z,13.47
2017-08-30T01:10:50.151Z,16.37
2017-08-30T01:13:17.702Z,13.97
2017-08-30T01:15:45.214Z,19.40
2017-08-30T01:18:12.726Z,12.20
2017-08-30T01:20:40.347Z,21.83
2017-08-30T01:23:07.848Z,14.97
2017-08-30T01:25:35.343Z,18.73
2017-08-30T01:28:02.891Z,20.30
2017-08-30T01:30:31.151Z,27.27
2017-08-30T01:32:58.653Z,11.83
2017-08-30T01:35:26.179Z,11.80
2017-08-30T01:37:53.675Z,20.40
2017-08-30T01:40:21.252Z,21.33
2017-08-30T01:42:48.780Z,22.70
2017-08-30T01:45:16.282Z,25.10
2017-08-30T01:47:43.804Z,22.30
2017-08-30T01:50:11.336Z,18.00
2017-08-30T01:52:38.892Z,29.17
2017-08-30T01:55:06.400Z,13.60
2017-08-30T01:57:33.923Z,27.70
2017-08-30T02:00:01.428Z,23.97
2017-08-30T02:02:28.946Z,18.87
2017-08-30T02:04:56.476Z,13.40
2017-08-30T02:07:23.976Z,17.60
2017-08-30T02:09:51.480Z,16.10
2017-08-30T02:12:19.034Z,19.77
2017-08-30T02:14:46.553Z,24.43
2017-08-30T02:17:14.056Z,14.93
2017-08-30T02:19:42.357Z,14.90
2017-08-30T02:22:09.878Z,17.93
2017-08-30T02:24:37.371Z,12.10
2017-08-30T02:27:04.925Z,19.00
2017-08-30T02:29:32.440Z,11.83
2017-08-30T02:31:59.955Z,12.23
2017-08-30T02:34:27.488Z,11.10
2017-08-30T02:36:54.994Z,13.97
2017-08-30T02:39:22.515Z,12.87
2017-08-30T02:41:50.063Z,11.40
2017-08-30T02:44:18.346Z,9.87
2017-08-30T02:46:45.840Z,18.30
2017-08-30T02:49:13.378Z,18.63
2017-08-30T02:51:40.936Z,14.73
2017-08-30T02:54:09.201Z,16.43
2017-08-30T02:56:36.735Z,14.73
2017-08-30T02:59:04.255Z,16.57
2017-08-30T03:01:31.769Z,13.50
2017-08-30T03:03:59.302Z,18.27
2017-08-30T03:06:26.830Z,13.73
2017-08-30T03:08:54.351Z,12.63
2017-08-30T03:11:21.902Z,14.23
2017-08-30T03:13:49.408Z,24.47
2017-08-30T03:16:16.926Z,16.13
2017-08-30T03:18:44.459Z,16.70
2017-08-30T03:21:11.968Z,19.03
2017-08-30T03:23:39.491Z,29.17
2017-08-30T03:26:07.098Z,15.83
2017-08-30T03:28:34.602Z,18.93
2017-08-30T03:31:02.131Z,21.77
2017-08-30T03:33:29.669Z,24.37
2017-08-30T03:35:57.216Z,18.73
2017-08-30T03:38:24.721Z,29.37
2017-08-30T03:40:52.348Z,24.27
2017-08-30T03:43:19.866Z,23.30
2017-08-30T03:45:47.388Z,25.10
2017-08-30T03:48:14.948Z,25.27
2017-08-30T03:50:42.474Z,28.27
2017-08-30T03:53:09.980Z,25.00
2017-08-30T03:55:37.527Z,20.87
2017-08-30T03:58:05.032Z,18.03
2017-08-30T04:00:32.545Z,19.20
2017-08-30T04:03:00.098Z,19.33
2017-08-30T04:05:27.614Z,21.30
2017-08-30T04:07:55.128Z,19.93
2017-08-30T04:10:22.674Z,19.60
2017-08-30T04:12:50.176Z,18.83
2017-08-30T04:15:17.675Z,18.93
2017-08-30T04:17:45.226Z,23.30
2017-08-30T04:20:12.745Z,22.27
2017-08-30T04:22:40.270Z,23.53
2017-08-30T04:25:07.808Z,29.60
2017-08-30T04:27:35.308Z,22.77
2017-08-30T04:30:02.816Z,25.67
2017-08-30T04:32:30.363Z,24.50
2017-08-30T04:34:57.883Z,23.03
2017-08-30T04:37:25.496Z,26.20
2017-08-30T04:39:53.027Z,22.10
2017-08-30T04:42:20.532Z,30.60
2017-08-30T04:44:48.040Z,27.80
2017-08-30T04:47:15.571Z,20.77
2017-08-30T04:49:43.086Z,21.30
2017-08-30T04:52:10.598Z,23.40
2017-08-30T04:54:38.203Z,18.07
2017-08-30T04:57:05.840Z,29.27
2017-08-30T04:59:33.339Z,22.80
2017-08-30T05:02:00.869Z,24.73
2017-08-30T05:04:28.390Z,25.73
2017-08-30T05:06:55.893Z,29.83
2017-08-30T05:09:23.430Z,28.73
2017-08-30T05:11:51.015Z,24.03
2017-08-30T05:14:18.533Z,22.73
2017-08-30T05:16:46.828Z,29.60
2017-08-30T05:19:14.350Z,22.43
2017-08-30T05:21:41.868Z,30.73
2017-08-30T05:24:09.428Z,23.00
2017-08-30T05:26:36.932Z,23.43
2017-08-30T05:29:04.453Z,26.67
2017-08-30T05:31:32.001Z,25.20
2017-08-30T05:33:59.514Z,27.10
2017-08-30T05:36:27.015Z,20.13
2017-08-30T05:38:54.548Z,32.87
2017-08-30T05:41:22.824Z,23.90
2017-08-30T05:43:50.347Z,26.20
2017-08-30T05:46:17.875Z,26.70
2017-08-30T05:48:45.394Z,29.00
2017-08-30T05:51:12.942Z,23.23
2017-08-30T05:53:40.462Z,27.10
2017-08-30T05:56:07.965Z,24.00
2017-08-30T05:58:35.487Z,26.50
2017-08-30T06:01:02.987Z,28.00
2017-08-30T06:03:30.540Z,24.07
2017-08-30T06:05:58.066Z,23.00
2017-08-30T06:08:25.600Z,27.03
2017-08-30T06:10:53.099Z,33.40
2017-08-30T06:13:20.617Z,20.97
2017-08-30T06:15:48.151Z,21.77
2017-08-30T06:18:15.670Z,25.33
2017-08-30T06:20:43.214Z,33.50
2017-08-30T06:23:10.849Z,22.20
2017-08-30T06:25:38.383Z,22.77
2017-08-30T06:28:06.652Z,22.23
2017-08-30T06:30:34.963Z,22.47
2017-08-30T06:33:02.465Z,21.73
2017-08-30T06:35:29.968Z,23.70
2017-08-30T06:37:57.492Z,28.33
2017-08-30T06:40:25.773Z,24.40
2017-08-30T06:42:53.335Z,17.37
2017-08-30T06:45:20.835Z,21.33
2017-08-30T06:47:48.390Z,17.33
2017-08-30T06:50:15.891Z,24.00
2017-08-30T06:52:43.397Z,21.40
2017-08-30T06:55:10.928Z,16.60
2017-08-30T06:57:39.210Z,22.53
2017-08-30T07:00:06.730Z,24.93
2017-08-30T07:02:34.254Z,16.83
2017-08-30T07:05:01.770Z,19.97
2017-08-30T07:07:29.291Z,16.60
2017-08-30T07:09:56.829Z,19.70
2017-08-30T07:12:24.362Z,15.30
2017-08-30T07:14:52.675Z,18.87
2017-08-30T07:17:20.180Z,13.57
2017-08-30T07:19:47.688Z,17.20
2017-08-30T07:22:15.216Z,15.83
2017-08-30T07:24:42.724Z,15.50
2017-08-30T07:27:10.356Z,14.70
2017-08-30T07:29:37.874Z,16.57
2017-08-30T07:32:05.376Z,14.13
2017-08-30T07:34:32.922Z,12.33
2017-08-30T07:37:00.444Z,13.70
2017-08-30T07:39:27.979Z,11.30
2017-08-30T07:41:55.500Z,15.13
2017-08-30T07:44:23.065Z,12.63
2017-08-30T07:46:50.600Z,10.90
2017-08-30T07:49:18.114Z,14.50
2017-08-30T07:51:45.635Z,23.13
2017-08-30T07:54:13.234Z,20.50
2017-08-30T07:56:40.736Z,19.97
2017-08-30T07:59:08.282Z,17.10
2017-08-30T08:01:35.785Z,12.97
2017-08-30T08:04:03.303Z,12.20
2017-08-30T08:06:31.611Z,32.10
2017-08-30T08:08:59.107Z,23.43
2017-08-30T08:11:26.628Z,21.63
2017-08-30T08:13:54.185Z,19.70
2017-08-30T08:16:21.735Z,23.40
2017-08-30T08:18:49.258Z,23.60
2017-08-30T08:21:16.773Z,30.67
2017-08-30T08:23:44.311Z,17.93
2017-08-30T08:26:11.812Z,17.00
2017-08-30T08:28:39.337Z,16.33
2017-08-30T08:31:06.895Z,18.80
2017-08-30T08:33:34.415Z,13.63
2017-08-30T08:36:01.953Z,12.13
2017-08-30T08:38:29.474Z,16.10
2017-08-30T08:40:56.995Z,9.73
2017-08-30T08:43:24.496Z,20.13
2017-08-30T08:45:52.004Z,12.73
2017-08-30T08:48:19.536Z,13.60
2017-08-30T08:50:47.055Z,13.83
2017-08-30T08:53:14.583Z,17.90
2017-08-30T08:55:42.134Z,19.23
2017-08-30T08:58:09.646Z,17.67
2017-08-30T09:00:37.157Z,15.40
2017-08-30T09:03:04.680Z,16.10
2017-08-30T09:05:32.179Z,20.53
2017-08-30T09:07:59.707Z,18.07
2017-08-30T09:10:27.208Z,13.13
2017-08-30T09:12:54.715Z,17.70
2017-08-30T09:15:22.269Z,12.50
2017-08-30T09:17:49.794Z,16.30
2017-08-30T09:20:17.317Z,11.77
2017-08-30T09:22:44.862Z,15.60
2017-08-30T09:25:12.375Z,13.77
2017-08-30T09:27:39.891Z,16.67
2017-08-30T09:30:07.438Z,14.27
2017-08-30T09:32:34.943Z,16.60
2017-08-30T09:35:02.454Z,13.47
2017-08-30T09:37:29.973Z,11.23
2017-08-30T09:39:57.476Z,19.07
2017-08-30T09:42:25.007Z,13.97
2017-08-30T09:44:52.651Z,15.77
2017-08-30T09:47:20.171Z,13.43
2017-08-30T09:49:47.700Z,14.57
2017-08-30T09:52:15.220Z,12.70
2017-08-30T09:54:42.724Z,12.80
2017-08-30T09:57:10.266Z,16.20
2017-08-30T09:59:37.771Z,12.53
2017-08-30T10:02:05.360Z,14.90
2017-08-30T10:04:32.884Z,13.33
2017-08-30T10:07:00.392Z,12.10
2017-08-30T10:09:27.924Z,19.37
2017-08-30T10:11:55.428Z,14.63
2017-08-30T10:14:22.932Z,15.03
2017-08-30T10:16:50.460Z,16.07
2017-08-30T10:19:18.067Z,13.80
2017-08-30T10:21:45.560Z,9.87
2017-08-30T10:24:13.111Z,13.47
2017-08-30T10:26:40.946Z,17.93
2017-08-30T10:29:08.448Z,15.83
2017-08-30T10:31:35.980Z,10.57
2017-08-30T10:34:03.490Z,8.17
2017-08-30T10:36:31.002Z,15.40
2017-08-30T10:38:58.535Z,16.57
2017-08-30T10:41:26.042Z,18.50
2017-08-30T10:43:53.547Z,14.57
2017-08-30T10:46:21.075Z,10.87
2017-08-30T10:48:48.586Z,12.63
2017-08-30T10:51:16.122Z,9.67
2017-08-30T10:53:43.692Z,13.57
2017-08-30T10:56:11.214Z,12.80
2017-08-30T10:58:39.495Z,13.60
2017-08-30T11:01:07.023Z,14.63
2017-08-30T11:03:34.539Z,14.53
2017-08-30T11:06:02.059Z,26.27
2017-08-30T11:08:30.364Z,10.30
2017-08-30T11:10:57.867Z,15.30
2017-08-30T11:13:25.399Z,19.50
2017-08-30T11:15:52.950Z,20.70
2017-08-30T11:18:20.522Z,14.43
2017-08-30T11:20:48.039Z,12.13
2017-08-30T11:23:16.370Z,23.73
2017-08-30T11:25:43.894Z,17.00
2017-08-30T11:28:11.395Z,10.80
2017-08-30T11:30:39.036Z,21.73
2017-08-30T11:33:06.562Z,11.73
2017-08-30T11:35:34.096Z,12.33
2017-08-30T11:38:01.642Z,16.17
2017-08-30T11:40:29.263Z,15.53
2017-08-30T11:42:56.776Z,16.00
2017-08-30T11:45:24.316Z,18.17
2017-08-30T11:47:51.840Z,15.90
2017-08-30T11:50:19.359Z,22.77
2017-08-30T11:52:46.891Z,30.97
2017-08-30T11:55:14.415Z,19.70
2017-08-30T11:57:41.942Z,32.73
2017-08-30T12:00:09.531Z,20.63
2017-08-30T12:02:37.032Z,30.20
2017-08-30T12:05:04.550Z,25.13
2017-08-30T12:07:32.079Z,29.33
2017-08-30T12:09:59.598Z,13.00
2017-08-30T12:12:27.104Z,18.13
2017-08-30T12:14:54.667Z,17.07
2017-08-30T12:17:22.172Z,14.83
2017-08-30T12:19:49.682Z,20.17
2017-08-30T12:22:17.224Z,11.30
2017-08-30T12:24:44.749Z,23.37
2017-08-30T12:27:12.251Z,11.00
2017-08-30T12:29:39.802Z,11.13
2017-08-30T12:32:07.322Z,20.33
2017-08-30T12:34:34.844Z,10.43
2017-08-30T12:37:08.120Z,19.53
2017-08-30T12:39:38.580Z,18.37
2017-08-30T12:42:06.084Z,16.13
2017-08-30T12:44:33.638Z,19.10
2017-08-30T12:47:01.140Z,16.10
2017-08-30T12:49:28.640Z,18.93
2017-08-30T12:51:56.183Z,12.93
2017-08-30T12:54:23.709Z,19.37
2017-08-30T12:56:51.235Z,15.23
2017-08-30T12:59:18.768Z,14.00
2017-08-30T13:01:46.282Z,21.80
2017-08-30T13:04:13.797Z,24.87
2017-08-30T13:06:41.328Z,17.50
2017-08-30T13:09:08.868Z,25.43
2017-08-30T13:11:36.387Z,13.83
2017-08-30T13:14:03.935Z,15.63
2017-08-30T13:16:31.454Z,18.13
2017-08-30T13:18:58.977Z,20.30
2017-08-30T13:21:26.521Z,26.20
2017-08-30T13:23:54.042Z,12.40
2017-08-30T13:26:21.587Z,18.50
2017-08-30T13:28:49.241Z,14.37
2017-08-30T13:31:17.519Z,23.17
2017-08-30T13:33:45.043Z,21.70
2017-08-30T13:36:12.576Z,18.70
2017-08-30T13:38:40.093Z,14.93
2017-08-30T13:41:07.591Z,18.60
2017-08-30T13:43:35.903Z,25.23
2017-08-30T13:46:03.421Z,16.23
2017-08-30T13:48:30.923Z,29.50
2017-08-30T13:50:58.464Z,14.73
2017-08-30T13:53:26.948Z,19.83
2017-08-30T13:55:54.462Z,19.33
2017-08-30T13:58:22.011Z,18.03
2017-08-30T14:00:49.539Z,13.70
2017-08-30T14:03:17.047Z,21.50
2017-08-30T14:05:44.593Z,20.73
2017-08-30T14:08:12.134Z,15.07
2017-08-30T14:10:39.647Z,20.47
2017-08-30T14:13:07.184Z,21.60
2017-08-30T14:15:34.710Z,19.90
2017-08-30T14:18:02.213Z,15.60
2017-08-30T14:20:29.825Z,21.50
2017-08-30T14:22:57.347Z,22.10
2017-08-30T14:25:24.943Z,22.10
2017-08-30T14:27:52.480Z,21.20
2017-08-30T14:30:20.009Z,22.17
2017-08-30T14:32:47.522Z,27.40
2017-08-30T14:35:15.051Z,24.93
2017-08-30T14:37:43.320Z,24.80
2017-08-30T14:40:10.838Z,21.30
2017-08-30T14:42:38.388Z,22.80
2017-08-30T14:45:05.914Z,21.67
2017-08-30T14:47:34.305Z,22.70
2017-08-30T14:50:01.861Z,25.60
2017-08-30T14:52:29.386Z,26.27
2017-08-30T14:54:56.901Z,18.57
2017-08-30T14:57:24.440Z,17.20
2017-08-30T14:59:51.959Z,18.80
2017-08-30T15:02:20.228Z,19.43
2017-08-30T15:04:47.760Z,29.93
2017-08-30T15:07:15.294Z,20.10
2017-08-30T15:09:42.796Z,23.37
2017-08-30T15:12:10.346Z,21.43
2017-08-30T15:14:37.847Z,17.10
2017-08-30T15:17:05.361Z,16.90
2017-08-30T15:19:32.911Z,18.70
2017-08-30T15:22:00.415Z,16.07
2017-08-30T15:24:27.914Z,19.10
2017-08-30T15:26:55.755Z,31.27
2017-08-30T15:29:23.255Z,28.73
2017-08-30T15:31:50.769Z,27.83
2017-08-30T15:34:18.303Z,22.43
2017-08-30T15:36:46.590Z,24.00
2017-08-30T15:39:14.114Z,23.98
2017-08-30T15:41:41.653Z,31.90
2017-08-30T15:44:09.192Z,35.13
2017-08-30T15:46:36.710Z,27.40
2017-08-30T15:49:04.263Z,23.47
2017-08-30T15:51:31.756Z,20.37
2017-08-30T15:53:59.259Z,22.23
2017-08-30T15:56:26.810Z,27.90
2017-08-30T15:58:54.342Z,35.37
2017-08-30T16:01:21.857Z,22.80
2017-08-30T16:03:49.396Z,22.00
2017-08-30T16:06:16.904Z,28.70
2017-08-30T16:08:44.429Z,20.20
2017-08-30T16:11:11.964Z,34.97
2017-08-30T16:13:39.588Z,26.30
2017-08-30T16:16:07.094Z,24.30
2017-08-30T16:18:34.635Z,21.50
2017-08-30T16:21:02.136Z,26.47
2017-08-30T16:23:29.732Z,29.70
2017-08-30T16:25:57.263Z,22.30
2017-08-30T16:28:24.772Z,25.63
2017-08-30T16:30:52.272Z,24.27
2017-08-30T16:33:19.866Z,24.27
2017-08-30T16:35:47.368Z,27.93
2017-08-30T16:38:14.926Z,30.77
2017-08-30T16:40:42.455Z,20.57
2017-08-30T16:43:09.957Z,26.87
2017-08-30T16:45:37.473Z,29.20
2017-08-30T16:48:05.026Z,26.23
2017-08-30T16:50:32.544Z,31.93
2017-08-30T16:53:00.825Z,22.40
2017-08-30T16:55:28.374Z,38.87
2017-08-30T16:57:56.664Z,31.50
2017-08-30T17:00:24.544Z,25.47
2017-08-30T17:02:52.071Z,52.07
2017-08-30T17:05:20.358Z,28.70
2017-08-30T17:07:48.642Z,39.57
2017-08-30T17:10:16.224Z,33.30
2017-08-30T17:12:43.742Z,41.43
2017-08-30T17:15:11.279Z,32.90
2017-08-30T17:17:38.826Z,29.30
2017-08-30T17:20:06.331Z,37.63
2017-08-30T17:22:34.635Z,51.93
2017-08-30T17:25:02.178Z,37.07
2017-08-30T17:27:29.703Z,39.27
2017-08-30T17:29:57.226Z,51.50
2017-08-30T17:32:24.794Z,42.03
2017-08-30T17:34:52.328Z,53.73
2017-08-30T17:37:19.849Z,54.80
2017-08-30T17:39:48.166Z,40.40
2017-08-30T17:42:15.685Z,29.10
2017-08-30T17:44:43.972Z,23.77
2017-08-30T17:47:11.503Z,16.50
2017-08-30T17:49:39.018Z,24.40
2017-08-30T17:52:06.575Z,25.23
2017-08-30T17:54:34.105Z,20.97
2017-08-30T17:57:01.622Z,23.27
2017-08-30T17:59:29.142Z,17.27
2017-08-30T18:01:56.686Z,12.17
2017-08-30T18:04:24.207Z,10.47
2017-08-30T18:06:51.725Z,19.57
2017-08-30T18:09:19.256Z,13.83
2017-08-30T18:11:46.770Z,22.63
2017-08-30T18:14:14.300Z,21.00
2017-08-30T18:16:41.823Z,19.80
2017-08-30T18:19:09.350Z,20.10
2017-08-30T18:21:36.862Z,20.13
2017-08-30T18:24:04.436Z,17.13
2017-08-30T18:26:31.935Z,20.63
2017-08-30T18:28:59.483Z,24.07
2017-08-30T18:31:27.010Z,19.70
2017-08-30T18:33:54.550Z,28.13
2017-08-30T18:36:22.815Z,26.17
2017-08-30T18:38:51.121Z,14.37
2017-08-30T18:41:18.620Z,17.73
2017-08-30T18:43:46.146Z,16.23
2017-08-30T18:46:13.647Z,15.43
2017-08-30T18:48:41.189Z,13.60
2017-08-30T18:51:08.688Z,16.03
2017-08-30T18:53:36.586Z,14.83
2017-08-30T18:56:04.870Z,13.83
2017-08-30T18:58:32.376Z,18.47
2017-08-30T19:00:59.916Z,23.17
2017-08-30T19:03:27.434Z,31.10
2017-08-30T19:05:54.985Z,26.40
2017-08-30T19:08:22.497Z,30.40
2017-08-30T19:10:50.015Z,22.17
2017-08-30T19:13:17.562Z,27.90
2017-08-30T19:15:45.064Z,26.33
2017-08-30T19:18:12.606Z,29.50
2017-08-30T19:20:40.107Z,26.27
2017-08-30T19:23:07.654Z,27.10
2017-08-30T19:25:35.167Z,28.60
2017-08-30T19:28:02.690Z,24.33
2017-08-30T19:30:30.247Z,31.23
2017-08-30T19:32:57.767Z,27.73
2017-08-30T19:35:25.273Z,26.13
2017-08-30T19:37:52.817Z,30.20
2017-08-30T19:40:20.337Z,29.23
2017-08-30T19:42:47.849Z,31.07
2017-08-30T19:45:15.380Z,30.47
2017-08-30T19:47:42.898Z,31.73
2017-08-30T19:50:10.419Z,33.23
2017-08-30T19:52:37.978Z,33.10
2017-08-30T19:55:05.480Z,36.00
2017-08-30T19:57:32.988Z,28.83
2017-08-30T20:00:01.289Z,30.80
2017-08-30T20:02:28.794Z,33.90
2017-08-30T20:04:56.412Z,34.37
2017-08-30T20:07:23.967Z,35.73
2017-08-30T20:09:51.504Z,39.60
2017-08-30T20:12:19.018Z,42.03
2017-08-30T20:14:46.548Z,39.77
2017-08-30T20:17:14.102Z,34.70
2017-08-30T20:19:41.632Z,37.30
2017-08-30T20:22:09.160Z,34.87
2017-08-30T20:24:36.687Z,31.47
2017-08-30T20:27:04.196Z,26.50
2017-08-30T20:29:31.735Z,23.00
2017-08-30T20:31:59.263Z,24.73
2017-08-30T20:34:27.551Z,29.70
2017-08-30T20:36:55.084Z,31.50
2017-08-30T20:39:22.647Z,29.63
2017-08-30T20:41:50.164Z,26.20
2017-08-30T20:44:18.478Z,24.10
2017-08-30T20:46:46.049Z,33.63
2017-08-30T20:49:13.569Z,27.17
2017-08-30T20:51:41.160Z,26.00
2017-08-30T20:54:08.660Z,27.30
2017-08-30T20:56:36.193Z,35.87
2017-08-30T20:59:03.696Z,30.70
2017-08-30T21:01:31.996Z,38.80
2017-08-30T21:03:59.533Z,28.50
2017-08-30T21:06:27.054Z,29.83
2017-08-30T21:08:54.689Z,29.03
2017-08-30T21:11:22.192Z,24.03
2017-08-30T21:13:49.809Z,22.13
2017-08-30T21:16:17.359Z,23.90
2017-08-30T21:18:44.891Z,21.43
2017-08-30T21:21:12.392Z,29.87
2017-08-30T21:23:39.946Z,25.43
2017-08-30T21:26:07.468Z,25.07
2017-08-30T21:28:34.990Z,21.03
2017-08-30T21:31:02.547Z,29.03
2017-08-30T21:33:30.068Z,22.57
2017-08-30T21:35:57.578Z,24.23
2017-08-30T21:38:25.126Z,33.43
2017-08-30T21:40:52.627Z,24.70
2017-08-30T21:43:20.159Z,20.90
2017-08-30T21:45:47.659Z,23.73
2017-08-30T21:48:15.174Z,28.83
2017-08-30T21:50:42.704Z,34.47
2017-08-30T21:53:10.991Z,27.60
2017-08-30T21:55:38.564Z,22.27
2017-08-30T21:58:06.100Z,19.20
2017-08-30T22:00:33.603Z,18.37
2017-08-30T22:03:01.117Z,14.43
2017-08-30T22:05:28.648Z,16.57
2017-08-30T22:07:56.167Z,14.60
2017-08-30T22:10:23.687Z,13.07
2017-08-30T22:12:52.001Z,13.97
2017-08-30T22:15:20.273Z,14.23
2017-08-30T22:17:47.775Z,13.00
2017-08-30T22:20:15.304Z,15.33
2017-08-30T22:22:42.807Z,14.17
2017-08-30T22:25:10.316Z,14.97
2017-08-30T22:27:37.867Z,12.83
2017-08-30T22:30:05.369Z,13.77
2017-08-30T22:32:32.891Z,18.67
2017-08-30T22:35:00.445Z,21.10
2017-08-30T22:37:27.949Z,17.73
2017-08-30T22:39:55.489Z,14.40
2017-08-30T22:42:23.014Z,22.50
2017-08-30T22:44:50.511Z,16.60
2017-08-30T22:47:18.045Z,33.00
2017-08-30T22:49:45.562Z,14.50
2017-08-30T22:52:13.112Z,14.90
2017-08-30T22:54:41.384Z,11.10
2017-08-30T22:57:08.891Z,11.80
2017-08-30T22:59:36.438Z,11.67
2017-08-30T23:02:03.948Z,16.30
2017-08-30T23:04:31.451Z,16.50
2017-08-30T23:06:58.983Z,18.80
2017-08-30T23:09:26.484Z,14.20
2017-08-30T23:11:54.010Z,15.57
2017-08-30T23:14:21.535Z,10.97
2017-08-30T23:16:49.040Z,13.60
2017-08-30T23:19:16.566Z,18.27
2017-08-30T23:21:44.122Z,19.90
2017-08-30T23:24:12.435Z,19.27
2017-08-30T23:26:39.945Z,14.37
2017-08-30T23:29:07.495Z,17.73
2017-08-30T23:31:34.997Z,15.47
2017-08-30T23:34:02.517Z,27.53
2017-08-30T23:36:30.126Z,17.63
2017-08-30T23:38:57.657Z,18.33
2017-08-30T23:41:25.160Z,25.27
2017-08-30T23:43:52.696Z,21.63
2017-08-30T23:46:20.195Z,18.33
2017-08-30T23:48:47.714Z,19.80
2017-08-30T23:51:15.265Z,21.13
2017-08-30T23:53:42.782Z,19.87
2017-08-30T23:56:10.294Z,23.80
2017-08-30T23:58:37.848Z,20.23
